Time;durP1;ratioP1;P1;durP2;ratioP2;P2;SDS_P1;SDS_P2;PMS_P1;PMS_P2;Temp;Humidity;BMP_temperature;BMP_pressure;BME280_temperature;BME280_humidity;BME280_pressure;Samples;Min_cycle;Max_cycle;Signal;HPM_P1;HPM_P2
2023/07/03 00:05:17;;;;;;;6.25;3.53;;;22.10;45.30;;;;;;2478544;55;20989;-70
2023/07/03 00:07:43;;;;;;;6.37;3.65;;;22.10;45.00;;;;;;2274256;55;21002;-71
2023/07/03 00:10:09;;;;;;;6.65;3.67;;;22.10;45.00;;;;;;2504315;55;21457;-72
2023/07/03 00:13:31;;;;;;;8.25;3.85;;;22.10;45.00;;;;;;2514717;55;21005;-70
2023/07/03 00:16:03;;;;;;;6.12;3.35;;;22.10;45.30;;;;;;2520822;54;21006;-70
2023/07/03 00:18:29;;;;;;;6.97;3.87;;;22.10;45.20;;;;;;2282978;56;21017;-70
2023/07/03 00:20:56;;;;;;;7.03;3.62;;;22.10;45.20;;;;;;2514086;55;20938;-70
2023/07/03 00:23:49;;;;;;;5.82;3.58;;;22.10;45.30;;;;;;2283023;56;20995;-72
2023/07/03 00:26:16;;;;;;;7.25;3.95;;;22.10;45.60;;;;;;2271250;55;20950;-70
2023/07/03 00:28:42;;;;;;;7.05;3.90;;;22.10;45.40;;;;;;2281806;55;21078;-72
2023/07/03 00:31:09;;;;;;;6.78;3.40;;;22.10;45.40;;;;;;2282342;55;20926;-74
2023/07/03 00:37:16;;;;;;;7.32;4.07;;;22.10;45.70;;;;;;2516145;55;20957;-71
2023/07/03 00:43:08;;;;;;;7.97;4.15;;;22.10;45.70;;;;;;2280483;55;20982;-71
2023/07/03 00:46:31;;;;;;;7.70;4.15;;;22.10;45.40;;;;;;2282653;56;21026;-72
2023/07/03 00:48:58;;;;;;;8.70;4.07;;;22.20;45.90;;;;;;2515139;55;21058;-71
2023/07/03 00:51:24;;;;;;;9.25;4.03;;;22.10;45.60;;;;;;2511305;55;21111;-71
2023/07/03 00:53:50;;;;;;;9.85;4.97;;;22.20;45.80;;;;;;2282163;56;20954;-71
2023/07/03 00:56:17;;;;;;;11.80;4.97;;;22.20;45.70;;;;;;2282934;56;21058;-71
2023/07/03 00:58:43;;;;;;;12.07;5.32;;;22.20;45.80;;;;;;2289400;55;20927;-71
2023/07/03 01:01:17;;;;;;;9.60;4.95;;;22.20;45.80;;;;;;2308332;55;21068;-71
2023/07/03 01:07:00;;;;;;;8.70;5.00;;;22.20;45.90;;;;;;2513848;54;20964;-71
2023/07/03 01:09:29;;;;;;;10.05;4.90;;;22.20;45.90;;;;;;2515703;54;21072;-72
2023/07/03 01:11:55;;;;;;;9.90;4.72;;;22.20;45.80;;;;;;2512212;54;22502;-73
2023/07/03 01:14:22;;;;;;;7.35;4.22;;;22.20;45.70;;;;;;2522920;54;21752;-73
2023/07/03 01:16:48;;;;;;;8.73;4.62;;;22.20;45.70;;;;;;2282353;56;21448;-72
2023/07/03 01:19:19;;;;;;;11.52;4.47;;;22.30;46.40;;;;;;2282246;56;20954;-71
2023/07/03 01:21:54;;;;;;;9.90;4.80;;;22.30;45.80;;;;;;2282751;56;21471;-71
2023/07/03 01:24:40;;;;;;;10.43;5.03;;;22.30;45.90;;;;;;2516060;55;20951;-73
2023/07/03 01:27:07;;;;;;;9.07;4.85;;;22.30;45.90;;;;;;2287603;55;21105;-70
2023/07/03 01:29:33;;;;;;;8.30;4.40;;;22.30;45.70;;;;;;2500001;55;20915;-73
2023/07/03 01:31:59;;;;;;;8.57;3.95;;;22.30;45.70;;;;;;2514774;55;21096;-72
2023/07/03 01:34:27;;;;;;;7.75;4.20;;;22.30;45.80;;;;;;2516056;55;20942;-71
2023/07/03 01:40:25;;;;;;;8.60;4.65;;;22.30;46.10;;;;;;2532219;54;21656;-70
2023/07/03 01:42:52;;;;;;;6.32;3.60;;;22.40;45.90;;;;;;2286624;56;20993;-72
2023/07/03 01:45:19;;;;;;;12.85;4.90;;;22.30;45.80;;;;;;2308420;55;20991;-71
2023/07/03 01:47:48;;;;;;;10.95;4.82;;;22.40;45.90;;;;;;2302443;55;20958;-73
2023/07/03 01:50:33;;;;;;;8.38;4.00;;;22.40;45.90;;;;;;2496781;55;21107;-71
2023/07/03 01:53:19;;;;;;;8.38;4.15;;;22.40;46.00;;;;;;2281742;56;20942;-71
2023/07/03 01:56:04;;;;;;;8.82;4.03;;;22.40;46.60;;;;;;2282501;56;21412;-73
2023/07/03 01:58:47;;;;;;;8.30;4.12;;;22.40;45.90;;;;;;2283361;56;20958;-72
2023/07/03 02:01:35;;;;;;;7.62;3.85;;;22.40;46.00;;;;;;2515046;55;21038;-73
2023/07/03 02:04:57;;;;;;;8.45;4.32;;;22.40;46.00;;;;;;2259330;55;20943;-71
2023/07/03 02:07:24;;;;;;;6.80;3.90;;;22.50;46.20;;;;;;2295306;55;21012;-72
2023/07/03 02:09:51;;;;;;;8.45;4.00;;;22.50;46.00;;;;;;2276566;56;21054;-73
2023/07/03 02:12:17;;;;;;;9.30;4.35;;;22.40;45.90;;;;;;2282985;55;20931;-71
2023/07/03 02:14:44;;;;;;;8.60;4.45;;;22.50;46.10;;;;;;2516447;54;20983;-69
2023/07/03 02:17:44;;;;;;;10.15;4.53;;;22.50;46.00;;;;;;2308859;55;21622;-71
2023/07/03 02:20:16;;;;;;;9.10;3.90;;;22.50;46.10;;;;;;2253936;55;20967;-70
2023/07/03 02:22:43;;;;;;;9.18;3.58;;;22.50;46.10;;;;;;2507381;55;20958;-73
2023/07/03 02:25:10;;;;;;;8.95;4.22;;;22.50;46.00;;;;;;2500584;55;21929;-72
2023/07/03 02:27:42;;;;;;;9.10;4.05;;;22.50;46.10;;;;;;2536939;54;20973;-70
2023/07/03 02:30:09;;;;;;;8.85;4.50;;;22.50;46.10;;;;;;2287850;55;20986;-72
2023/07/03 02:32:40;;;;;;;7.78;3.97;;;22.50;46.10;;;;;;2282092;55;20950;-70
2023/07/03 02:35:08;;;;;;;9.85;4.25;;;22.50;46.10;;;;;;2541483;54;21595;-71
2023/07/03 02:37:35;;;;;;;6.45;3.37;;;22.50;46.10;;;;;;2538628;54;21016;-71
2023/07/03 02:40:08;;;;;;;7.43;4.00;;;22.50;46.10;;;;;;2258425;56;20936;-72
2023/07/03 02:42:38;;;;;;;9.40;4.67;;;22.60;46.20;;;;;;2306976;55;21057;-74
2023/07/03 02:45:06;;;;;;;8.05;4.03;;;22.60;46.20;;;;;;2497147;55;21007;-71
2023/07/03 02:47:36;;;;;;;6.93;4.18;;;22.50;46.10;;;;;;2283129;56;21014;-70
2023/07/03 02:50:07;;;;;;;10.07;4.03;;;22.50;46.10;;;;;;2297024;55;21099;-71
2023/07/03 02:52:33;;;;;;;6.90;3.58;;;22.50;46.10;;;;;;2309375;55;20948;-70
2023/07/03 02:55:00;;;;;;;7.87;3.92;;;22.60;46.20;;;;;;2542931;54;20956;-73
2023/07/03 02:57:28;;;;;;;7.30;3.65;;;22.50;46.10;;;;;;2282652;55;20949;-72
2023/07/03 02:59:54;;;;;;;6.10;3.22;;;22.50;46.10;;;;;;2267231;55;21049;-72
2023/07/03 03:02:21;;;;;;;7.85;4.03;;;22.50;46.10;;;;;;2515936;54;20971;-73
2023/07/03 03:04:47;;;;;;;8.88;3.70;;;22.50;46.10;;;;;;2533324;54;20959;-71
2023/07/03 03:07:14;;;;;;;7.43;3.85;;;22.50;46.10;;;;;;2515794;55;21037;-72
2023/07/03 03:09:41;;;;;;;7.72;3.83;;;22.50;46.10;;;;;;2287857;55;20989;-72
2023/07/03 03:12:08;;;;;;;7.57;3.72;;;22.60;46.10;;;;;;2547742;54;20956;-72
2023/07/03 03:14:35;;;;;;;6.40;3.53;;;22.50;46.10;;;;;;2308243;55;20970;-72
2023/07/03 03:17:01;;;;;;;9.68;3.80;;;22.50;46.10;;;;;;2305523;55;20991;-71
2023/07/03 03:19:27;;;;;;;7.95;4.12;;;22.50;46.10;;;;;;2516494;55;20938;-71
2023/07/03 03:21:54;;;;;;;8.45;4.40;;;22.50;46.20;;;;;;2530389;54;21008;-73
2023/07/03 03:24:21;;;;;;;7.85;4.12;;;22.50;46.10;;;;;;2309372;55;21020;-71
2023/07/03 03:26:47;;;;;;;10.85;4.95;;;22.50;46.20;;;;;;2302601;55;20978;-71
2023/07/03 03:29:15;;;;;;;9.30;4.25;;;22.50;46.20;;;;;;2515724;55;20954;-72
2023/07/03 03:31:42;;;;;;;8.85;4.55;;;22.50;46.30;;;;;;2516209;54;21555;-72
2023/07/03 03:34:08;;;;;;;8.32;3.97;;;22.50;46.20;;;;;;2535321;54;21927;-73
2023/07/03 03:36:38;;;;;;;6.95;4.00;;;22.50;46.30;;;;;;2260011;55;21081;-68
2023/07/03 03:39:05;;;;;;;11.95;4.65;;;22.50;46.30;;;;;;2282103;55;21086;-73
2023/07/03 03:41:31;;;;;;;10.40;4.70;;;22.50;46.30;;;;;;2283242;55;21005;-72
2023/07/03 03:43:58;;;;;;;7.03;3.60;;;22.50;46.30;;;;;;2515567;55;20942;-73
2023/07/03 03:46:25;;;;;;;6.75;3.53;;;22.50;46.40;;;;;;2516159;55;21457;-72
2023/07/03 03:48:52;;;;;;;6.65;3.25;;;22.40;46.30;;;;;;2515179;55;21002;-72
2023/07/03 03:51:18;;;;;;;6.30;3.78;;;22.40;46.40;;;;;;2281487;55;20998;-72
2023/07/03 03:53:45;;;;;;;7.05;3.83;;;22.40;46.40;;;;;;2482350;55;20953;-71
2023/07/03 03:56:11;;;;;;;7.93;3.70;;;22.40;46.50;;;;;;2274343;55;21012;-70
2023/07/03 03:58:37;;;;;;;5.97;3.40;;;22.40;46.50;;;;;;2277934;55;20954;-71
2023/07/03 04:01:04;;;;;;;6.72;3.53;;;22.40;46.50;;;;;;2287526;55;21928;-72
2023/07/03 04:03:30;;;;;;;7.07;3.55;;;22.40;46.50;;;;;;2282976;56;20970;-72
2023/07/03 04:05:56;;;;;;;7.95;4.10;;;22.40;46.60;;;;;;2486723;55;21010;-71
2023/07/03 04:08:23;;;;;;;6.85;3.70;;;22.40;46.60;;;;;;2503061;54;20946;-71
2023/07/03 04:10:49;;;;;;;7.43;3.70;;;22.40;46.60;;;;;;2535880;54;20943;-70
2023/07/03 04:13:16;;;;;;;7.90;3.80;;;22.40;46.70;;;;;;2308833;55;20936;-71
2023/07/03 04:15:57;;;;;;;7.25;3.97;;;22.30;46.60;;;;;;2501245;55;20925;-72
2023/07/03 04:18:23;;;;;;;7.00;3.40;;;22.40;46.90;;;;;;2270684;55;21506;-71
2023/07/03 04:20:50;;;;;;;7.15;3.65;;;22.30;46.70;;;;;;2514742;55;20946;-70
2023/07/03 04:23:17;;;;;;;8.60;3.85;;;22.30;46.80;;;;;;2514724;55;20950;-71
2023/07/03 04:25:43;;;;;;;8.55;4.07;;;22.30;46.80;;;;;;2515957;55;21322;-70
2023/07/03 04:28:10;;;;;;;7.03;3.65;;;22.30;46.80;;;;;;2514308;55;21014;-71
2023/07/03 04:30:36;;;;;;;6.15;3.37;;;22.30;46.90;;;;;;2515589;55;22301;-70
2023/07/03 04:33:05;;;;;;;7.22;3.80;;;22.40;47.00;;;;;;2281865;55;20951;-71
2023/07/03 04:35:32;;;;;;;6.82;3.67;;;22.30;47.00;;;;;;2516458;55;21022;-69
2023/07/03 04:38:01;;;;;;;7.57;3.65;;;22.30;47.00;;;;;;2514574;55;20958;-71
2023/07/03 04:40:28;;;;;;;6.18;3.70;;;22.30;47.00;;;;;;2282753;55;21002;-69
2023/07/03 04:42:56;;;;;;;7.18;3.53;;;22.30;47.00;;;;;;2506162;55;20937;-73
2023/07/03 04:45:24;;;;;;;6.60;3.55;;;22.30;47.00;;;;;;2280902;55;20981;-70
2023/07/03 04:47:51;;;;;;;13.80;5.75;;;22.30;47.70;;;;;;2282870;55;21499;-71
2023/07/03 04:50:18;;;;;;;5.62;3.15;;;22.30;47.10;;;;;;2506292;55;21041;-70
2023/07/03 04:52:46;;;;;;;6.87;3.75;;;22.30;47.20;;;;;;2277040;55;21003;-72
2023/07/03 04:55:13;;;;;;;6.95;3.72;;;22.30;47.20;;;;;;2282812;55;21022;-70
2023/07/03 04:57:40;;;;;;;7.55;3.80;;;22.30;47.20;;;;;;2515804;55;20950;-72
2023/07/03 05:00:14;;;;;;;7.18;4.00;;;22.30;47.20;;;;;;2515096;55;20981;-71
2023/07/03 05:02:46;;;;;;;6.22;3.35;;;22.30;47.30;;;;;;2303622;55;20935;-71
2023/07/03 05:05:13;;;;;;;5.90;3.45;;;22.30;47.40;;;;;;2300613;55;21842;-72
2023/07/03 05:07:40;;;;;;;6.53;3.50;;;22.30;47.40;;;;;;2502583;54;20950;-72
2023/07/03 05:10:07;;;;;;;7.80;3.95;;;22.30;47.40;;;;;;2265369;56;20971;-72
2023/07/03 05:12:34;;;;;;;8.23;4.10;;;22.30;47.50;;;;;;2515860;55;21883;-73
2023/07/03 05:15:01;;;;;;;6.35;3.70;;;22.40;47.60;;;;;;2513975;55;20994;-71
2023/07/03 05:17:27;;;;;;;7.00;3.33;;;22.40;47.60;;;;;;2295180;55;21011;-70
2023/07/03 05:19:54;;;;;;;6.82;4.00;;;22.40;47.60;;;;;;2546786;54;20932;-73
2023/07/03 05:22:20;;;;;;;7.37;3.97;;;22.40;47.70;;;;;;2307650;55;20956;-71
2023/07/03 05:24:47;;;;;;;8.95;4.68;;;22.40;47.80;;;;;;2518778;54;21397;-69
2023/07/03 05:27:13;;;;;;;7.10;3.87;;;22.40;47.80;;;;;;2508768;54;20997;-71
2023/07/03 05:29:39;;;;;;;6.43;3.58;;;22.40;47.80;;;;;;2283590;56;21058;-72
2023/07/03 05:32:06;;;;;;;6.97;3.30;;;22.40;47.80;;;;;;2292752;55;20958;-71
2023/07/03 05:34:34;;;;;;;7.15;3.35;;;22.40;47.80;;;;;;2485712;55;21592;-69
2023/07/03 05:37:02;;;;;;;7.20;3.53;;;22.50;47.80;;;;;;2510848;55;20994;-71
2023/07/03 05:39:28;;;;;;;7.28;3.75;;;22.50;47.70;;;;;;2516257;55;21010;-72
2023/07/03 05:41:58;;;;;;;6.05;3.62;;;22.50;47.80;;;;;;2515062;55;20965;-70
2023/07/03 05:44:25;;;;;;;8.00;3.53;;;22.50;47.80;;;;;;2515598;55;21056;-71
2023/07/03 05:46:51;;;;;;;10.40;3.97;;;22.50;47.80;;;;;;2513891;55;20970;-71
2023/07/03 05:49:18;;;;;;;7.12;3.67;;;22.50;47.90;;;;;;2515100;55;21779;-71
2023/07/03 05:51:44;;;;;;;6.50;3.75;;;22.60;48.00;;;;;;2282746;56;20929;-72
2023/07/03 05:54:10;;;;;;;7.57;3.90;;;22.60;48.00;;;;;;2291049;55;21172;-71
2023/07/03 05:56:38;;;;;;;7.45;3.60;;;22.60;48.10;;;;;;2309453;55;20987;-71
2023/07/03 05:59:04;;;;;;;9.00;4.18;;;22.60;48.10;;;;;;2541577;54;20955;-70
2023/07/03 06:01:31;;;;;;;5.57;3.30;;;22.60;48.20;;;;;;2301366;55;21550;-70
2023/07/03 06:03:58;;;;;;;7.20;3.00;;;22.60;48.80;;;;;;2281648;56;21450;-71
2023/07/03 06:06:24;;;;;;;6.82;3.30;;;22.60;48.20;;;;;;2496040;54;21109;-70
2023/07/03 06:08:50;;;;;;;11.23;4.10;;;22.70;48.30;;;;;;2524242;54;20934;-68
2023/07/03 06:11:18;;;;;;;11.07;4.15;;;22.70;48.40;;;;;;2548051;54;20976;-73
2023/07/03 06:13:45;;;;;;;8.45;3.58;;;22.70;48.50;;;;;;2304581;55;20971;-71
2023/07/03 06:16:11;;;;;;;7.05;3.90;;;22.70;48.50;;;;;;2281719;56;21752;-71
2023/07/03 06:18:38;;;;;;;6.97;3.80;;;22.70;48.50;;;;;;2283010;56;20975;-72
2023/07/03 06:21:04;;;;;;;6.30;3.47;;;22.70;48.50;;;;;;2282210;56;21325;-70
2023/07/03 06:23:31;;;;;;;7.05;3.35;;;22.70;48.50;;;;;;2544374;54;20976;-72
2023/07/03 06:25:58;;;;;;;6.22;3.75;;;22.80;48.60;;;;;;2532210;54;21306;-72
2023/07/03 06:28:24;;;;;;;9.20;4.28;;;22.80;48.60;;;;;;2283814;55;21058;-71
2023/07/03 06:30:52;;;;;;;9.82;4.32;;;22.80;48.60;;;;;;2515648;55;21407;-71
2023/07/03 06:33:21;;;;;;;6.93;3.80;;;22.80;48.70;;;;;;2516472;55;20975;-72
2023/07/03 06:35:49;;;;;;;7.30;3.85;;;22.80;48.70;;;;;;2515632;55;20925;-73
2023/07/03 06:38:16;;;;;;;7.57;3.50;;;22.90;48.70;;;;;;2514961;55;20927;-72
2023/07/03 06:40:42;;;;;;;7.12;3.95;;;22.90;48.70;;;;;;2500706;55;21588;-73
2023/07/03 06:43:08;;;;;;;8.38;4.47;;;22.90;48.80;;;;;;2493336;55;20962;-72
2023/07/03 06:45:37;;;;;;;6.47;3.75;;;23.00;48.90;;;;;;2262082;56;21025;-68
2023/07/03 06:48:06;;;;;;;8.10;4.00;;;23.00;48.80;;;;;;2279764;55;20966;-71
2023/07/03 06:50:33;;;;;;;9.88;4.28;;;23.00;48.70;;;;;;2286350;55;20998;-71
2023/07/03 06:52:59;;;;;;;7.45;4.12;;;23.00;48.70;;;;;;2273318;55;20947;-73
2023/07/03 06:55:25;;;;;;;9.65;4.03;;;23.10;48.70;;;;;;2515821;55;20986;-70
2023/07/03 06:57:55;;;;;;;7.22;3.83;;;23.10;49.30;;;;;;2281802;55;21454;-71
2023/07/03 07:00:21;;;;;;;7.57;3.50;;;23.10;48.70;;;;;;2282998;55;20946;-71
2023/07/03 07:02:48;;;;;;;8.63;4.03;;;23.00;48.50;;;;;;2515518;55;20994;-73
2023/07/03 07:05:15;;;;;;;8.02;4.35;;;23.20;48.70;;;;;;2282193;55;20996;-72
2023/07/03 07:07:42;;;;;;;7.47;3.70;;;23.20;48.70;;;;;;2283507;55;20971;-72
2023/07/03 07:10:09;;;;;;;7.35;3.42;;;23.20;48.80;;;;;;2502149;55;20951;-71
2023/07/03 07:12:35;;;;;;;6.72;3.60;;;23.20;48.70;;;;;;2282528;55;21464;-70
2023/07/03 07:15:04;;;;;;;8.90;4.43;;;23.30;48.60;;;;;;2282260;55;20954;-70
2023/07/03 07:17:31;;;;;;;6.78;3.95;;;23.40;48.60;;;;;;2516024;55;21062;-71
2023/07/03 07:20:12;;;;;;;7.43;4.20;;;23.40;48.50;;;;;;2515105;55;20938;-71
2023/07/03 07:22:38;;;;;;;5.85;3.33;;;23.40;48.30;;;;;;2516017;55;21098;-71
2023/07/03 07:25:06;;;;;;;12.43;3.67;;;23.40;48.20;;;;;;2511495;55;21839;-71
2023/07/03 07:27:33;;;;;;;7.85;4.15;;;23.50;48.30;;;;;;2276726;56;20966;-73
2023/07/03 07:30:02;;;;;;;8.10;3.53;;;23.50;48.40;;;;;;2479242;55;20954;-73
2023/07/03 07:32:30;;;;;;;7.65;3.45;;;23.50;48.30;;;;;;2516051;54;20982;-71
2023/07/03 07:34:57;;;;;;;8.40;4.10;;;23.60;48.20;;;;;;2513179;54;21470;-71
2023/07/03 07:37:25;;;;;;;6.32;3.45;;;23.60;48.10;;;;;;2531491;54;21031;-70
2023/07/03 07:39:54;;;;;;;7.53;3.25;;;23.60;48.00;;;;;;2533866;54;20951;-71
2023/07/03 07:42:21;;;;;;;7.18;3.65;;;23.60;47.80;;;;;;2515630;55;21014;-72
2023/07/03 07:44:50;;;;;;;8.02;3.37;;;23.70;47.80;;;;;;2515755;55;21014;-70
2023/07/03 07:47:19;;;;;;;8.10;3.87;;;23.80;47.80;;;;;;2281997;56;20926;-72
2023/07/03 07:49:48;;;;;;;8.73;3.85;;;23.80;47.80;;;;;;2515619;54;21138;-71
2023/07/03 07:52:15;;;;;;;6.57;3.20;;;23.80;47.90;;;;;;2515286;54;20962;-74
2023/07/03 07:54:43;;;;;;;6.78;3.40;;;23.80;47.80;;;;;;2516014;54;20961;-72
2023/07/03 07:57:10;;;;;;;8.18;4.30;;;23.90;47.90;;;;;;2282438;55;21448;-71
2023/07/03 07:59:37;;;;;;;8.65;3.78;;;23.90;48.00;;;;;;2283062;56;21498;-73
2023/07/03 08:02:03;;;;;;;9.82;3.90;;;24.00;48.00;;;;;;2528470;54;20991;-72
2023/07/03 08:04:29;;;;;;;6.80;3.28;;;24.00;47.80;;;;;;2515666;55;20959;-71
2023/07/03 08:06:58;;;;;;;7.70;3.10;;;24.10;47.90;;;;;;2281669;56;20998;-71
2023/07/03 08:09:25;;;;;;;8.50;3.53;;;24.10;47.80;;;;;;2515825;55;20979;-73
2023/07/03 08:11:52;;;;;;;7.60;3.40;;;24.20;47.90;;;;;;2282566;55;21002;-73
2023/07/03 08:14:19;;;;;;;6.25;3.35;;;24.20;47.80;;;;;;2520711;54;20972;-72
2023/07/03 08:16:46;;;;;;;7.32;3.60;;;24.30;47.60;;;;;;2280065;55;20978;-72
2023/07/03 08:19:12;;;;;;;9.05;3.78;;;24.30;47.50;;;;;;2469935;55;21041;-73
2023/07/03 08:21:40;;;;;;;6.95;3.50;;;24.30;47.20;;;;;;2283023;56;20938;-72
2023/07/03 08:24:08;;;;;;;7.93;3.30;;;24.40;47.10;;;;;;2306405;55;21704;-69
2023/07/03 08:26:36;;;;;;;6.82;3.03;;;24.40;46.80;;;;;;2538998;54;21042;-72
2023/07/03 08:29:05;;;;;;;6.45;3.20;;;24.40;46.60;;;;;;2515209;55;20958;-71
2023/07/03 08:31:32;;;;;;;6.43;2.97;;;24.50;46.40;;;;;;2299534;55;21275;-72
2023/07/03 08:33:58;;;;;;;6.07;2.75;;;24.50;46.40;;;;;;2533846;54;20964;-69
2023/07/03 08:36:25;;;;;;;7.80;2.72;;;24.60;46.40;;;;;;2514660;55;21038;-72
2023/07/03 08:38:54;;;;;;;8.55;3.15;;;24.60;46.40;;;;;;2442339;55;2701190;-73
2023/07/03 08:41:23;;;;;;;8.65;3.30;;;24.60;46.20;;;;;;2541516;54;21476;-72
2023/07/03 08:43:52;;;;;;;8.23;3.50;;;24.60;46.00;;;;;;2309251;55;20920;-71
2023/07/03 08:46:23;;;;;;;6.57;2.80;;;24.60;46.00;;;;;;2547474;54;20960;-70
2023/07/03 08:48:51;;;;;;;8.90;3.25;;;24.70;45.80;;;;;;2309292;55;21433;-72
2023/07/03 08:51:19;;;;;;;7.03;3.25;;;24.70;46.00;;;;;;2308463;55;21054;-71
2023/07/03 08:53:50;;;;;;;7.75;3.30;;;24.70;46.10;;;;;;2308800;55;21869;-73
2023/07/03 08:56:20;;;;;;;7.57;3.28;;;24.70;46.20;;;;;;2546803;54;20924;-71
2023/07/03 08:58:49;;;;;;;5.62;2.78;;;24.80;46.30;;;;;;2547205;54;21151;-72
2023/07/03 09:03:00;;;;;;;7.90;3.10;;;24.80;46.40;;;;;;2308639;55;21022;-74
2023/07/03 09:06:22;;;;;;;6.20;2.50;;;24.80;46.30;;;;;;2308812;55;20924;-73
2023/07/03 09:09:08;;;;;;;4.68;1.95;;;25.00;46.00;;;;;;2547748;54;20920;-72
2023/07/03 09:11:36;;;;;;;6.18;2.53;;;25.10;45.80;;;;;;2547858;54;20927;-73
2023/07/03 09:14:03;;;;;;;5.35;2.17;;;25.10;45.70;;;;;;2547108;54;20947;-72
2023/07/03 09:16:30;;;;;;;5.50;2.30;;;25.10;45.40;;;;;;2308309;55;20987;-73
2023/07/03 09:19:16;;;;;;;5.45;2.42;;;25.20;45.40;;;;;;2547469;54;21000;-72
2023/07/03 09:21:43;;;;;;;4.85;2.33;;;25.20;44.80;;;;;;2308594;55;21095;-74
2023/07/03 09:24:39;;;;;;;5.22;2.00;;;25.20;45.10;;;;;;2546144;54;20988;-73
2023/07/03 09:27:11;;;;;;;5.10;2.10;;;25.30;44.60;;;;;;2308581;55;20947;-72
2023/07/03 09:29:38;;;;;;;3.87;1.73;;;25.30;44.80;;;;;;2308971;55;20975;-74
2023/07/03 09:32:06;;;;;;;5.10;2.05;;;25.40;44.90;;;;;;2308539;55;21369;-73
2023/07/03 09:34:58;;;;;;;5.80;2.72;;;25.40;44.80;;;;;;2520660;54;20961;-74
2023/07/03 09:37:24;;;;;;;6.80;2.45;;;25.40;44.50;;;;;;2513229;54;20968;-71
2023/07/03 09:39:51;;;;;;;6.50;2.90;;;25.50;44.80;;;;;;2283883;55;20949;-71
2023/07/03 09:42:18;;;;;;;5.22;2.22;;;25.50;44.50;;;;;;2306511;55;20967;-72
2023/07/03 09:44:44;;;;;;;4.22;1.92;;;25.50;44.40;;;;;;2309133;55;20963;-74
2023/07/03 09:47:26;;;;;;;6.20;2.30;;;25.60;44.40;;;;;;2308395;55;20947;-74
2023/07/03 09:49:52;;;;;;;;;;;25.60;44.10;;;;;;2526292;54;20933;-71
2023/07/03 09:52:19;;;;;;;5.25;2.20;;;25.70;44.30;;;;;;2502058;54;20216;-71
2023/07/03 09:54:46;;;;;;;4.28;1.87;;;25.70;44.30;;;;;;2547745;54;20932;-70
2023/07/03 09:57:25;;;;;;;5.78;2.30;;;25.70;44.20;;;;;;2546878;54;20968;-72
2023/07/03 09:59:53;;;;;;;5.95;2.15;;;25.80;44.20;;;;;;2547200;54;21035;-71
2023/07/03 10:02:23;;;;;;;4.15;1.95;;;25.80;44.30;;;;;;2298761;56;20973;-71
2023/07/03 10:04:52;;;;;;;6.53;2.55;;;25.80;44.30;;;;;;2528066;54;21007;-73
2023/07/03 10:29:21;;;;;;;3.97;1.62;;;25.80;44.60;;;;;;2523897;54;21057;-72
2023/07/03 10:32:08;;;;;;;5.00;1.85;;;26.10;43.70;;;;;;2533619;54;21018;-72
2023/07/03 10:34:52;;;;;;;4.12;1.80;;;26.10;43.80;;;;;;2295513;55;20932;-69
2023/07/03 10:37:20;;;;;;;5.00;1.70;;;26.10;43.50;;;;;;2547159;54;20960;-72
2023/07/03 10:40:09;;;;;;;4.30;1.77;;;26.10;44.00;;;;;;2301684;55;21388;-74
2023/07/03 10:42:44;;;;;;;3.30;1.40;;;26.10;43.40;;;;;;2532059;54;21457;-72
2023/07/03 10:45:12;;;;;;;7.18;1.95;;;26.20;43.90;;;;;;2308354;55;20959;-73
2023/07/03 10:48:22;;;;;;;3.55;1.30;;;26.20;43.70;;;;;;2309084;55;20932;-73
2023/07/03 10:51:12;;;;;;;4.95;1.83;;;26.30;43.00;;;;;;2307947;55;20967;-72
2023/07/03 10:54:02;;;;;;;3.10;1.27;;;26.40;42.90;;;;;;2308789;55;20963;-72
2023/07/03 10:56:35;;;;;;;3.95;1.10;;;26.40;43.00;;;;;;2547211;54;21362;-72
2023/07/03 10:59:32;;;;;;;3.97;1.30;;;26.50;43.00;;;;;;2522006;54;21496;-74
2023/07/03 11:02:53;;;;;;;3.53;1.30;;;26.60;43.00;;;;;;2282778;55;20970;-72
2023/07/03 11:05:26;;;;;;;2.67;1.17;;;26.70;42.80;;;;;;2281204;55;20965;-72
2023/07/03 11:08:12;;;;;;;3.10;1.30;;;26.70;43.40;;;;;;2515451;55;21446;-71
2023/07/03 11:12:39;;;;;;;3.50;1.20;;;26.70;42.30;;;;;;2282549;55;21092;-71
2023/07/03 11:21:58;;;;;;;3.53;1.23;;;26.70;42.20;;;;;;2298946;55;21003;-72
2023/07/03 11:24:43;;;;;;;2.78;0.80;;;26.80;42.30;;;;;;2507558;54;21050;-72
2023/07/03 11:27:30;;;;;;;2.22;0.93;;;26.90;42.10;;;;;;2493015;54;21804;-73
2023/07/03 11:29:59;;;;;;;3.00;0.95;;;26.90;42.10;;;;;;2547405;54;21741;-73
2023/07/03 11:32:25;;;;;;;3.80;1.12;;;26.90;42.40;;;;;;2283808;56;21008;-73
2023/07/03 11:34:52;;;;;;;2.33;0.85;;;26.90;42.40;;;;;;2282464;55;20942;-72
2023/07/03 11:37:49;;;;;;;2.67;0.90;;;26.90;42.30;;;;;;2277185;56;20933;-71
2023/07/03 11:40:29;;;;;;;2.53;0.80;;;27.00;41.50;;;;;;2515453;55;21100;-70
2023/07/03 11:43:18;;;;;;;1.48;0.60;;;27.00;41.60;;;;;;2515922;55;21113;-74
2023/07/03 11:46:03;;;;;;;2.30;0.70;;;27.00;41.50;;;;;;2282531;55;21021;-73
2023/07/03 11:49:09;;;;;;;2.83;0.73;;;27.00;41.60;;;;;;2275573;55;21047;-73
2023/07/03 11:51:37;;;;;;;1.62;0.82;;;27.10;41.50;;;;;;2534172;54;21487;-72
2023/07/03 11:54:20;;;;;;;2.10;0.70;;;27.10;41.60;;;;;;2282093;55;20946;-71
2023/07/03 11:56:52;;;;;;;2.85;0.90;;;27.10;41.40;;;;;;2282805;56;21074;-72
2023/07/03 11:59:29;;;;;;;2.72;0.85;;;27.10;41.80;;;;;;2301041;55;21428;-72
2023/07/03 12:08:59;;;;;;;2.20;0.80;;;27.20;41.70;;;;;;2522287;54;21038;-73
2023/07/03 12:11:28;;;;;;;1.95;0.60;;;27.30;42.00;;;;;;2492236;54;21337;-72
2023/07/03 12:13:54;;;;;;;1.17;0.40;;;27.30;41.80;;;;;;2512947;55;20959;-73
2023/07/03 12:16:26;;;;;;;2.58;0.50;;;27.40;41.50;;;;;;2282419;56;20942;-73
2023/07/03 12:19:00;;;;;;;;;;;27.40;41.40;;;;;;2536534;54;20984;-72
2023/07/03 12:21:39;;;;;;;1.60;0.40;;;27.40;41.50;;;;;;2546203;54;20650;-72
2023/07/03 12:25:10;;;;;;;1.10;0.50;;;27.50;41.10;;;;;;2525732;54;21085;-73
2023/07/03 12:27:38;;;;;;;1.27;0.45;;;27.60;41.10;;;;;;2285435;56;20982;-72
2023/07/03 12:30:06;;;;;;;1.27;0.40;;;27.60;41.30;;;;;;2513642;55;20978;-71
2023/07/03 12:32:33;;;;;;;1.20;0.37;;;27.60;41.30;;;;;;2488017;55;21623;-72
2023/07/03 12:35:49;;;;;;;1.27;0.40;;;27.70;41.40;;;;;;2308203;55;20924;-72
2023/07/03 12:38:19;;;;;;;1.05;0.40;;;27.70;40.80;;;;;;2274725;55;20987;-75
2023/07/03 12:40:46;;;;;;;1.05;0.50;;;27.80;41.00;;;;;;2520229;54;20940;-74
2023/07/03 12:43:15;;;;;;;1.17;0.43;;;27.80;40.70;;;;;;2276057;55;21042;-72
2023/07/03 12:45:50;;;;;;;1.83;0.60;;;27.90;40.20;;;;;;2277916;56;20979;-72
2023/07/03 12:48:21;;;;;;;1.02;0.40;;;27.90;39.80;;;;;;2486670;55;20965;-72
2023/07/03 12:50:56;;;;;;;0.75;0.30;;;27.90;39.90;;;;;;2511414;54;21013;-72
2023/07/03 12:53:22;;;;;;;2.03;0.55;;;28.00;40.10;;;;;;2545370;54;20979;-70
2023/07/03 12:55:57;;;;;;;1.58;0.55;;;28.10;40.30;;;;;;2519268;54;20998;-70
2023/07/03 12:58:23;;;;;;;1.23;0.50;;;28.10;40.10;;;;;;2544799;54;20928;-71
2023/07/03 13:01:11;;;;;;;2.05;0.68;;;28.10;39.80;;;;;;2547308;54;20932;-74
2023/07/03 13:03:41;;;;;;;1.70;0.43;;;28.20;39.50;;;;;;2308222;55;20988;-70
2023/07/03 13:06:22;;;;;;;1.17;0.50;;;28.30;39.90;;;;;;2270908;55;20983;-71
2023/07/03 13:08:49;;;;;;;1.45;0.50;;;28.40;39.20;;;;;;2502074;55;20978;-72
2023/07/03 13:11:15;;;;;;;1.02;0.40;;;28.30;39.40;;;;;;2282613;55;20975;-71
2023/07/03 13:13:41;;;;;;;1.33;0.40;;;28.40;39.40;;;;;;2282710;55;21007;-71
2023/07/03 13:16:15;;;;;;;1.33;0.40;;;28.40;39.40;;;;;;2282925;55;20942;-70
2023/07/03 13:18:58;;;;;;;1.33;0.50;;;28.50;39.00;;;;;;2515690;55;20950;-72
2023/07/03 13:21:24;;;;;;;0.93;0.40;;;28.60;38.90;;;;;;2282649;55;20946;-72
2023/07/03 13:23:51;;;;;;;1.25;0.50;;;28.60;39.10;;;;;;2282797;55;21089;-72
2023/07/03 13:26:22;;;;;;;0.85;0.40;;;28.60;39.00;;;;;;2515341;55;21057;-72
2023/07/03 13:28:58;;;;;;;1.60;0.47;;;28.70;38.70;;;;;;2507720;54;20954;-72
2023/07/03 13:31:25;;;;;;;1.35;0.40;;;28.70;38.80;;;;;;2514419;55;21002;-72
2023/07/03 13:34:22;;;;;;;1.60;0.52;;;28.80;39.00;;;;;;2515407;55;21026;-73
2023/07/03 13:37:00;;;;;;;1.87;0.55;;;28.90;38.70;;;;;;2282686;55;20953;-71
2023/07/03 13:39:28;;;;;;;1.27;0.50;;;28.90;38.60;;;;;;2516129;55;20934;-72
2023/07/03 13:41:55;;;;;;;1.23;0.50;;;29.00;38.90;;;;;;2282577;55;21720;-72
2023/07/03 13:44:23;;;;;;;1.25;0.52;;;29.00;38.60;;;;;;2282877;55;21018;-70
2023/07/03 13:46:50;;;;;;;1.27;0.40;;;29.10;38.80;;;;;;2282908;55;20990;-74
2023/07/03 13:49:16;;;;;;;1.65;0.50;;;29.10;38.60;;;;;;2515391;55;21551;-73
2023/07/03 13:51:45;;;;;;;1.25;0.55;;;29.10;38.50;;;;;;2279962;55;20955;-72
2023/07/03 13:54:11;;;;;;;0.95;0.43;;;29.10;38.60;;;;;;2280554;55;21022;-74
2023/07/03 13:56:39;;;;;;;1.30;0.47;;;29.20;38.40;;;;;;2288368;55;20930;-72
2023/07/03 13:59:06;;;;;;;1.50;0.60;;;29.20;38.50;;;;;;2297094;55;21092;-73
2023/07/03 14:01:33;;;;;;;1.37;0.40;;;29.20;38.40;;;;;;2543298;54;20938;-70
2023/07/03 14:04:00;;;;;;;2.72;0.70;;;29.30;38.30;;;;;;2282306;56;21010;-73